sensor_id;sensor_type;location;lat;lon;timestamp;P1;durP1;ratioP1;P2;durP2;ratioP2
80131;SDS011;69442;51.442;10.564;2023-08-06T00:01:12;2.08;;;1.38;;
80131;SDS011;69442;51.442;10.564;2023-08-06T00:03:37;3.72;;;1.50;;
80131;SDS011;69442;51.442;10.564;2023-08-06T00:06:04;1.60;;;1.17;;
80131;SDS011;69442;51.442;10.564;2023-08-06T00:08:31;2.45;;;1.30;;
80131;SDS011;69442;51.442;10.564;2023-08-06T00:10:56;1.75;;;1.30;;
80131;SDS011;69442;51.442;10.564;2023-08-06T00:13:21;1.90;;;1.40;;
80131;SDS011;69442;51.442;10.564;2023-08-06T00:15:47;1.40;;;1.10;;
80131;SDS011;69442;51.442;10.564;2023-08-06T00:18:12;3.33;;;1.27;;
80131;SDS011;69442;51.442;10.564;2023-08-06T00:20:40;3.33;;;1.30;;
80131;SDS011;69442;51.442;10.564;2023-08-06T00:23:06;2.15;;;1.23;;
80131;SDS011;69442;51.442;10.564;2023-08-06T00:25:33;1.60;;;1.00;;
80131;SDS011;69442;51.442;10.564;2023-08-06T00:27:58;1.05;;;0.93;;
80131;SDS011;69442;51.442;10.564;2023-08-06T00:30:24;1.17;;;0.82;;
80131;SDS011;69442;51.442;10.564;2023-08-06T00:32:49;1.20;;;0.80;;
80131;SDS011;69442;51.442;10.564;2023-08-06T00:35:14;1.00;;;0.90;;
80131;SDS011;69442;51.442;10.564;2023-08-06T00:37:40;1.85;;;1.00;;
80131;SDS011;69442;51.442;10.564;2023-08-06T00:40:06;1.35;;;0.90;;
80131;SDS011;69442;51.442;10.564;2023-08-06T00:42:32;1.67;;;0.90;;
80131;SDS011;69442;51.442;10.564;2023-08-06T00:44:59;2.42;;;1.38;;
80131;SDS011;69442;51.442;10.564;2023-08-06T00:47:25;1.98;;;1.45;;
80131;SDS011;69442;51.442;10.564;2023-08-06T00:49:50;1.77;;;1.38;;
80131;SDS011;69442;51.442;10.564;2023-08-06T00:52:16;1.08;;;0.95;;
80131;SDS011;69442;51.442;10.564;2023-08-06T00:54:42;1.33;;;1.00;;
80131;SDS011;69442;51.442;10.564;2023-08-06T00:57:07;1.80;;;1.20;;
80131;SDS011;69442;51.442;10.564;2023-08-06T00:59:34;1.70;;;0.98;;
80131;SDS011;69442;51.442;10.564;2023-08-06T01:01:59;2.10;;;1.05;;
80131;SDS011;69442;51.442;10.564;2023-08-06T01:04:25;2.25;;;1.02;;
80131;SDS011;69442;51.442;10.564;2023-08-06T01:07:15;1.75;;;0.95;;
80131;SDS011;69442;51.442;10.564;2023-08-06T01:10:10;1.13;;;0.90;;
80131;SDS011;69442;51.442;10.564;2023-08-06T01:15:43;1.45;;;0.70;;
80131;SDS011;69442;51.442;10.564;2023-08-06T01:18:12;1.67;;;1.08;;
80131;SDS011;69442;51.442;10.564;2023-08-06T01:20:38;2.92;;;1.20;;
80131;SDS011;69442;51.442;10.564;2023-08-06T01:23:04;1.27;;;1.00;;
80131;SDS011;69442;51.442;10.564;2023-08-06T01:25:30;2.30;;;1.02;;
80131;SDS011;69442;51.442;10.564;2023-08-06T01:28:04;2.30;;;1.40;;
80131;SDS011;69442;51.442;10.564;2023-08-06T01:30:32;2.38;;;1.30;;
80131;SDS011;69442;51.442;10.564;2023-08-06T01:33:03;3.60;;;1.90;;
80131;SDS011;69442;51.442;10.564;2023-08-06T01:35:30;2.47;;;1.40;;
80131;SDS011;69442;51.442;10.564;2023-08-06T01:37:59;2.78;;;1.67;;
80131;SDS011;69442;51.442;10.564;2023-08-06T01:40:25;3.55;;;1.80;;
80131;SDS011;69442;51.442;10.564;2023-08-06T01:42:53;2.67;;;1.85;;
80131;SDS011;69442;51.442;10.564;2023-08-06T01:45:18;2.03;;;1.50;;
80131;SDS011;69442;51.442;10.564;2023-08-06T01:47:44;4.35;;;2.20;;
80131;SDS011;69442;51.442;10.564;2023-08-06T01:50:09;3.75;;;2.08;;
80131;SDS011;69442;51.442;10.564;2023-08-06T01:52:34;3.17;;;2.15;;
80131;SDS011;69442;51.442;10.564;2023-08-06T01:55:00;3.55;;;2.47;;
80131;SDS011;69442;51.442;10.564;2023-08-06T01:57:25;4.28;;;2.70;;
80131;SDS011;69442;51.442;10.564;2023-08-06T01:59:51;3.83;;;2.67;;
80131;SDS011;69442;51.442;10.564;2023-08-06T02:02:16;4.55;;;2.63;;
80131;SDS011;69442;51.442;10.564;2023-08-06T02:04:41;3.50;;;2.85;;
80131;SDS011;69442;51.442;10.564;2023-08-06T02:07:07;3.28;;;2.20;;
80131;SDS011;69442;51.442;10.564;2023-08-06T02:09:32;2.75;;;1.98;;
80131;SDS011;69442;51.442;10.564;2023-08-06T02:11:57;3.65;;;2.60;;
80131;SDS011;69442;51.442;10.564;2023-08-06T02:14:23;2.65;;;2.05;;
80131;SDS011;69442;51.442;10.564;2023-08-06T02:16:48;3.35;;;2.00;;
80131;SDS011;69442;51.442;10.564;2023-08-06T02:19:14;2.97;;;2.20;;
80131;SDS011;69442;51.442;10.564;2023-08-06T02:21:40;2.67;;;1.90;;
80131;SDS011;69442;51.442;10.564;2023-08-06T02:24:05;3.58;;;2.30;;
80131;SDS011;69442;51.442;10.564;2023-08-06T02:26:30;3.85;;;1.95;;
80131;SDS011;69442;51.442;10.564;2023-08-06T02:28:56;2.60;;;1.80;;
80131;SDS011;69442;51.442;10.564;2023-08-06T02:31:21;2.67;;;1.90;;
80131;SDS011;69442;51.442;10.564;2023-08-06T02:33:47;2.47;;;1.98;;
80131;SDS011;69442;51.442;10.564;2023-08-06T02:36:12;3.42;;;1.88;;
80131;SDS011;69442;51.442;10.564;2023-08-06T02:38:37;3.38;;;1.58;;
80131;SDS011;69442;51.442;10.564;2023-08-06T02:41:03;3.47;;;2.15;;
80131;SDS011;69442;51.442;10.564;2023-08-06T02:43:28;3.33;;;2.10;;
80131;SDS011;69442;51.442;10.564;2023-08-06T02:45:57;2.95;;;1.90;;
80131;SDS011;69442;51.442;10.564;2023-08-06T02:48:24;2.15;;;1.52;;
80131;SDS011;69442;51.442;10.564;2023-08-06T02:50:49;3.70;;;1.50;;
80131;SDS011;69442;51.442;10.564;2023-08-06T02:53:14;3.70;;;1.60;;
80131;SDS011;69442;51.442;10.564;2023-08-06T02:55:44;2.10;;;1.20;;
80131;SDS011;69442;51.442;10.564;2023-08-06T02:58:13;1.65;;;1.20;;
80131;SDS011;69442;51.442;10.564;2023-08-06T03:00:42;2.08;;;1.40;;
80131;SDS011;69442;51.442;10.564;2023-08-06T03:03:09;1.42;;;1.23;;
80131;SDS011;69442;51.442;10.564;2023-08-06T03:05:34;1.98;;;1.20;;
80131;SDS011;69442;51.442;10.564;2023-08-06T03:08:00;2.17;;;1.20;;
80131;SDS011;69442;51.442;10.564;2023-08-06T03:10:25;1.92;;;1.42;;
80131;SDS011;69442;51.442;10.564;2023-08-06T03:12:50;2.33;;;1.20;;
80131;SDS011;69442;51.442;10.564;2023-08-06T03:15:16;1.40;;;1.15;;
80131;SDS011;69442;51.442;10.564;2023-08-06T03:17:41;2.65;;;1.20;;
80131;SDS011;69442;51.442;10.564;2023-08-06T03:20:07;1.65;;;1.05;;
80131;SDS011;69442;51.442;10.564;2023-08-06T03:22:32;0.65;;;0.65;;
80131;SDS011;69442;51.442;10.564;2023-08-06T03:24:58;1.90;;;1.40;;
80131;SDS011;69442;51.442;10.564;2023-08-06T03:27:23;2.90;;;1.33;;
80131;SDS011;69442;51.442;10.564;2023-08-06T03:29:49;1.60;;;1.13;;
80131;SDS011;69442;51.442;10.564;2023-08-06T03:32:17;1.33;;;1.00;;
80131;SDS011;69442;51.442;10.564;2023-08-06T03:34:43;2.50;;;1.60;;
80131;SDS011;69442;51.442;10.564;2023-08-06T03:37:08;2.40;;;1.70;;
80131;SDS011;69442;51.442;10.564;2023-08-06T03:39:34;3.33;;;1.80;;
80131;SDS011;69442;51.442;10.564;2023-08-06T03:41:59;3.50;;;1.48;;
80131;SDS011;69442;51.442;10.564;2023-08-06T03:44:24;2.50;;;1.98;;
80131;SDS011;69442;51.442;10.564;2023-08-06T03:46:52;2.80;;;1.90;;
80131;SDS011;69442;51.442;10.564;2023-08-06T03:49:17;3.72;;;1.90;;
80131;SDS011;69442;51.442;10.564;2023-08-06T03:51:42;4.95;;;2.10;;
80131;SDS011;69442;51.442;10.564;2023-08-06T03:54:08;2.85;;;1.90;;
80131;SDS011;69442;51.442;10.564;2023-08-06T03:56:33;1.90;;;1.42;;
80131;SDS011;69442;51.442;10.564;2023-08-06T03:58:58;2.28;;;1.40;;
80131;SDS011;69442;51.442;10.564;2023-08-06T04:01:24;1.65;;;1.23;;
80131;SDS011;69442;51.442;10.564;2023-08-06T04:03:49;4.65;;;1.67;;
80131;SDS011;69442;51.442;10.564;2023-08-06T04:06:14;2.85;;;1.70;;
80131;SDS011;69442;51.442;10.564;2023-08-06T04:08:40;3.45;;;2.13;;
80131;SDS011;69442;51.442;10.564;2023-08-06T04:11:05;3.35;;;2.10;;
80131;SDS011;69442;51.442;10.564;2023-08-06T04:13:30;3.80;;;2.75;;
80131;SDS011;69442;51.442;10.564;2023-08-06T04:16:00;3.72;;;2.35;;
80131;SDS011;69442;51.442;10.564;2023-08-06T04:18:28;3.28;;;2.13;;
80131;SDS011;69442;51.442;10.564;2023-08-06T04:20:54;4.50;;;2.55;;
80131;SDS011;69442;51.442;10.564;2023-08-06T04:23:20;3.83;;;2.45;;
80131;SDS011;69442;51.442;10.564;2023-08-06T04:25:46;3.85;;;2.50;;
80131;SDS011;69442;51.442;10.564;2023-08-06T04:28:11;3.65;;;2.40;;
80131;SDS011;69442;51.442;10.564;2023-08-06T04:30:36;2.92;;;1.98;;
80131;SDS011;69442;51.442;10.564;2023-08-06T04:33:02;2.95;;;2.13;;
80131;SDS011;69442;51.442;10.564;2023-08-06T04:35:28;3.45;;;2.40;;
80131;SDS011;69442;51.442;10.564;2023-08-06T04:37:53;3.28;;;2.60;;
80131;SDS011;69442;51.442;10.564;2023-08-06T04:40:18;3.60;;;3.05;;
80131;SDS011;69442;51.442;10.564;2023-08-06T04:42:44;5.18;;;3.45;;
80131;SDS011;69442;51.442;10.564;2023-08-06T04:45:09;4.38;;;3.20;;
80131;SDS011;69442;51.442;10.564;2023-08-06T04:47:35;5.18;;;3.20;;
80131;SDS011;69442;51.442;10.564;2023-08-06T04:50:00;5.05;;;3.15;;
80131;SDS011;69442;51.442;10.564;2023-08-06T04:52:26;4.05;;;3.38;;
80131;SDS011;69442;51.442;10.564;2023-08-06T04:54:53;5.30;;;3.50;;
80131;SDS011;69442;51.442;10.564;2023-08-06T04:57:21;4.18;;;3.13;;
80131;SDS011;69442;51.442;10.564;2023-08-06T04:59:46;5.03;;;3.20;;
80131;SDS011;69442;51.442;10.564;2023-08-06T05:02:12;4.75;;;2.95;;
80131;SDS011;69442;51.442;10.564;2023-08-06T05:04:38;3.95;;;2.47;;
80131;SDS011;69442;51.442;10.564;2023-08-06T05:07:03;3.58;;;2.70;;
80131;SDS011;69442;51.442;10.564;2023-08-06T05:09:30;5.93;;;3.00;;
80131;SDS011;69442;51.442;10.564;2023-08-06T05:11:55;3.92;;;2.97;;
80131;SDS011;69442;51.442;10.564;2023-08-06T05:14:20;3.63;;;2.47;;
80131;SDS011;69442;51.442;10.564;2023-08-06T05:16:46;5.05;;;2.70;;
80131;SDS011;69442;51.442;10.564;2023-08-06T05:19:11;4.13;;;2.95;;
80131;SDS011;69442;51.442;10.564;2023-08-06T05:21:37;3.95;;;3.30;;
80131;SDS011;69442;51.442;10.564;2023-08-06T05:24:02;4.63;;;3.17;;
80131;SDS011;69442;51.442;10.564;2023-08-06T05:26:27;3.97;;;2.95;;
80131;SDS011;69442;51.442;10.564;2023-08-06T05:28:53;3.25;;;2.33;;
80131;SDS011;69442;51.442;10.564;2023-08-06T05:31:18;5.47;;;2.97;;
80131;SDS011;69442;51.442;10.564;2023-08-06T05:33:44;4.00;;;3.20;;
80131;SDS011;69442;51.442;10.564;2023-08-06T05:36:09;4.10;;;2.80;;
80131;SDS011;69442;51.442;10.564;2023-08-06T05:38:34;3.90;;;2.90;;
80131;SDS011;69442;51.442;10.564;2023-08-06T05:41:00;5.25;;;3.10;;
80131;SDS011;69442;51.442;10.564;2023-08-06T05:43:25;3.85;;;2.55;;
80131;SDS011;69442;51.442;10.564;2023-08-06T05:45:51;5.93;;;3.00;;
80131;SDS011;69442;51.442;10.564;2023-08-06T05:48:16;3.63;;;2.80;;
80131;SDS011;69442;51.442;10.564;2023-08-06T05:50:42;3.95;;;3.10;;
80131;SDS011;69442;51.442;10.564;2023-08-06T05:53:07;4.57;;;3.50;;
80131;SDS011;69442;51.442;10.564;2023-08-06T05:55:33;4.13;;;3.08;;
80131;SDS011;69442;51.442;10.564;2023-08-06T05:57:59;4.30;;;3.20;;
80131;SDS011;69442;51.442;10.564;2023-08-06T06:00:24;5.22;;;3.35;;
80131;SDS011;69442;51.442;10.564;2023-08-06T06:02:50;5.00;;;3.10;;
80131;SDS011;69442;51.442;10.564;2023-08-06T06:05:15;7.40;;;3.42;;
80131;SDS011;69442;51.442;10.564;2023-08-06T06:07:41;4.53;;;2.85;;
80131;SDS011;69442;51.442;10.564;2023-08-06T06:10:06;3.75;;;2.90;;
80131;SDS011;69442;51.442;10.564;2023-08-06T06:12:32;4.78;;;3.28;;
80131;SDS011;69442;51.442;10.564;2023-08-06T06:14:58;4.25;;;3.08;;
80131;SDS011;69442;51.442;10.564;2023-08-06T06:17:23;4.82;;;2.65;;
80131;SDS011;69442;51.442;10.564;2023-08-06T06:19:48;3.42;;;2.88;;
80131;SDS011;69442;51.442;10.564;2023-08-06T06:22:14;5.15;;;2.85;;
80131;SDS011;69442;51.442;10.564;2023-08-06T06:24:39;4.03;;;3.30;;
80131;SDS011;69442;51.442;10.564;2023-08-06T06:27:05;3.53;;;2.85;;
80131;SDS011;69442;51.442;10.564;2023-08-06T06:29:30;7.18;;;3.80;;
80131;SDS011;69442;51.442;10.564;2023-08-06T06:31:56;4.13;;;2.80;;
80131;SDS011;69442;51.442;10.564;2023-08-06T06:34:21;3.47;;;2.88;;
80131;SDS011;69442;51.442;10.564;2023-08-06T06:36:47;4.30;;;3.20;;
80131;SDS011;69442;51.442;10.564;2023-08-06T06:39:12;4.55;;;2.58;;
80131;SDS011;69442;51.442;10.564;2023-08-06T06:41:38;3.88;;;2.90;;
80131;SDS011;69442;51.442;10.564;2023-08-06T06:44:04;7.35;;;3.08;;
80131;SDS011;69442;51.442;10.564;2023-08-06T06:46:30;3.95;;;2.95;;
80131;SDS011;69442;51.442;10.564;2023-08-06T06:48:55;4.70;;;3.25;;
80131;SDS011;69442;51.442;10.564;2023-08-06T06:51:21;3.40;;;2.55;;
80131;SDS011;69442;51.442;10.564;2023-08-06T06:53:46;3.15;;;2.70;;
80131;SDS011;69442;51.442;10.564;2023-08-06T06:56:11;5.32;;;2.90;;
80131;SDS011;69442;51.442;10.564;2023-08-06T06:58:37;4.45;;;2.90;;
80131;SDS011;69442;51.442;10.564;2023-08-06T07:01:04;5.30;;;2.80;;
80131;SDS011;69442;51.442;10.564;2023-08-06T07:03:29;5.55;;;2.90;;
80131;SDS011;69442;51.442;10.564;2023-08-06T07:05:58;5.07;;;3.13;;
80131;SDS011;69442;51.442;10.564;2023-08-06T07:08:24;4.32;;;3.35;;
80131;SDS011;69442;51.442;10.564;2023-08-06T07:10:50;4.30;;;3.20;;
80131;SDS011;69442;51.442;10.564;2023-08-06T07:13:15;4.78;;;2.70;;
80131;SDS011;69442;51.442;10.564;2023-08-06T07:15:41;2.85;;;2.25;;
80131;SDS011;69442;51.442;10.564;2023-08-06T07:18:07;3.53;;;2.80;;
80131;SDS011;69442;51.442;10.564;2023-08-06T07:20:32;3.45;;;2.78;;
80131;SDS011;69442;51.442;10.564;2023-08-06T07:22:59;3.90;;;2.55;;
80131;SDS011;69442;51.442;10.564;2023-08-06T07:25:25;4.45;;;2.47;;
80131;SDS011;69442;51.442;10.564;2023-08-06T07:27:50;3.17;;;2.53;;
80131;SDS011;69442;51.442;10.564;2023-08-06T07:30:15;3.45;;;2.40;;
80131;SDS011;69442;51.442;10.564;2023-08-06T07:32:42;3.72;;;2.60;;
80131;SDS011;69442;51.442;10.564;2023-08-06T07:35:07;3.53;;;2.63;;
80131;SDS011;69442;51.442;10.564;2023-08-06T07:37:37;4.18;;;2.42;;
80131;SDS011;69442;51.442;10.564;2023-08-06T07:40:03;4.38;;;2.42;;
80131;SDS011;69442;51.442;10.564;2023-08-06T07:42:29;3.47;;;2.53;;
80131;SDS011;69442;51.442;10.564;2023-08-06T07:44:55;2.85;;;2.20;;
80131;SDS011;69442;51.442;10.564;2023-08-06T07:47:21;3.15;;;2.30;;
80131;SDS011;69442;51.442;10.564;2023-08-06T07:49:47;2.97;;;2.00;;
80131;SDS011;69442;51.442;10.564;2023-08-06T07:52:13;4.78;;;3.03;;
80131;SDS011;69442;51.442;10.564;2023-08-06T07:54:38;3.80;;;2.40;;
80131;SDS011;69442;51.442;10.564;2023-08-06T07:57:03;3.50;;;2.03;;
80131;SDS011;69442;51.442;10.564;2023-08-06T07:59:29;3.33;;;2.10;;
80131;SDS011;69442;51.442;10.564;2023-08-06T08:01:55;3.03;;;2.00;;
80131;SDS011;69442;51.442;10.564;2023-08-06T08:04:20;2.60;;;1.92;;
80131;SDS011;69442;51.442;10.564;2023-08-06T08:06:46;3.03;;;2.05;;
80131;SDS011;69442;51.442;10.564;2023-08-06T08:09:12;3.15;;;1.90;;
80131;SDS011;69442;51.442;10.564;2023-08-06T08:11:38;4.00;;;2.10;;
80131;SDS011;69442;51.442;10.564;2023-08-06T08:14:04;2.80;;;1.85;;
80131;SDS011;69442;51.442;10.564;2023-08-06T08:16:29;1.13;;;0.80;;
80131;SDS011;69442;51.442;10.564;2023-08-06T08:18:55;2.20;;;1.60;;
80131;SDS011;69442;51.442;10.564;2023-08-06T08:21:21;3.42;;;1.40;;
80131;SDS011;69442;51.442;10.564;2023-08-06T08:23:50;2.50;;;1.60;;
80131;SDS011;69442;51.442;10.564;2023-08-06T08:26:16;1.73;;;1.50;;
80131;SDS011;69442;51.442;10.564;2023-08-06T08:28:41;2.90;;;1.80;;
80131;SDS011;69442;51.442;10.564;2023-08-06T08:31:10;2.20;;;1.55;;
80131;SDS011;69442;51.442;10.564;2023-08-06T08:33:36;2.20;;;1.67;;
80131;SDS011;69442;51.442;10.564;2023-08-06T08:36:02;1.27;;;0.88;;
80131;SDS011;69442;51.442;10.564;2023-08-06T08:38:28;2.72;;;1.50;;
80131;SDS011;69442;51.442;10.564;2023-08-06T08:40:53;2.35;;;1.58;;
80131;SDS011;69442;51.442;10.564;2023-08-06T08:43:20;3.25;;;1.63;;
80131;SDS011;69442;51.442;10.564;2023-08-06T08:45:49;1.95;;;1.30;;
80131;SDS011;69442;51.442;10.564;2023-08-06T08:48:15;3.05;;;1.70;;
80131;SDS011;69442;51.442;10.564;2023-08-06T08:50:42;2.58;;;1.42;;
80131;SDS011;69442;51.442;10.564;2023-08-06T08:53:10;1.40;;;0.85;;
80131;SDS011;69442;51.442;10.564;2023-08-06T08:55:36;3.28;;;1.67;;
80131;SDS011;69442;51.442;10.564;2023-08-06T08:58:04;3.00;;;1.80;;
80131;SDS011;69442;51.442;10.564;2023-08-06T09:00:29;4.07;;;1.23;;
80131;SDS011;69442;51.442;10.564;2023-08-06T09:02:55;3.35;;;1.63;;
80131;SDS011;69442;51.442;10.564;2023-08-06T09:05:21;2.50;;;1.60;;
80131;SDS011;69442;51.442;10.564;2023-08-06T09:07:48;3.83;;;1.63;;
80131;SDS011;69442;51.442;10.564;2023-08-06T09:10:16;3.63;;;1.90;;
80131;SDS011;69442;51.442;10.564;2023-08-06T09:12:48;4.40;;;1.50;;
80131;SDS011;69442;51.442;10.564;2023-08-06T09:15:15;3.92;;;1.65;;
80131;SDS011;69442;51.442;10.564;2023-08-06T09:17:41;2.72;;;1.67;;
80131;SDS011;69442;51.442;10.564;2023-08-06T09:20:12;2.90;;;1.70;;
80131;SDS011;69442;51.442;10.564;2023-08-06T09:22:39;2.50;;;1.50;;
80131;SDS011;69442;51.442;10.564;2023-08-06T09:25:06;2.97;;;1.60;;
80131;SDS011;69442;51.442;10.564;2023-08-06T09:27:35;2.00;;;1.45;;
80131;SDS011;69442;51.442;10.564;2023-08-06T09:30:01;2.53;;;1.42;;
80131;SDS011;69442;51.442;10.564;2023-08-06T09:32:29;2.00;;;1.40;;
80131;SDS011;69442;51.442;10.564;2023-08-06T09:35:16;2.97;;;1.67;;
80131;SDS011;69442;51.442;10.564;2023-08-06T09:37:42;6.75;;;1.58;;
80131;SDS011;69442;51.442;10.564;2023-08-06T09:42:53;2.42;;;1.30;;
80131;SDS011;69442;51.442;10.564;2023-08-06T09:45:19;3.38;;;2.10;;
80131;SDS011;69442;51.442;10.564;2023-08-06T09:47:44;2.75;;;1.38;;
80131;SDS011;69442;51.442;10.564;2023-08-06T09:50:19;2.85;;;1.50;;
80131;SDS011;69442;51.442;10.564;2023-08-06T09:52:45;2.33;;;1.50;;
80131;SDS011;69442;51.442;10.564;2023-08-06T09:55:12;2.65;;;1.40;;
80131;SDS011;69442;51.442;10.564;2023-08-06T09:57:39;2.05;;;1.48;;
80131;SDS011;69442;51.442;10.564;2023-08-06T10:00:06;2.63;;;1.58;;
80131;SDS011;69442;51.442;10.564;2023-08-06T10:02:34;4.80;;;1.52;;
80131;SDS011;69442;51.442;10.564;2023-08-06T10:05:04;1.83;;;1.40;;
80131;SDS011;69442;51.442;10.564;2023-08-06T10:07:30;2.72;;;1.63;;
80131;SDS011;69442;51.442;10.564;2023-08-06T10:09:58;1.10;;;0.77;;
80131;SDS011;69442;51.442;10.564;2023-08-06T10:12:24;2.63;;;1.30;;
80131;SDS011;69442;51.442;10.564;2023-08-06T10:14:52;1.65;;;1.20;;
80131;SDS011;69442;51.442;10.564;2023-08-06T10:17:20;2.08;;;1.23;;
80131;SDS011;69442;51.442;10.564;2023-08-06T10:19:47;2.08;;;1.13;;
80131;SDS011;69442;51.442;10.564;2023-08-06T10:22:14;1.95;;;1.60;;
80131;SDS011;69442;51.442;10.564;2023-08-06T10:33:01;3.08;;;1.50;;
80131;SDS011;69442;51.442;10.564;2023-08-06T10:35:31;1.85;;;1.30;;
80131;SDS011;69442;51.442;10.564;2023-08-06T10:38:00;4.10;;;1.58;;
80131;SDS011;69442;51.442;10.564;2023-08-06T10:40:28;2.38;;;1.20;;
80131;SDS011;69442;51.442;10.564;2023-08-06T10:42:56;2.67;;;1.30;;
80131;SDS011;69442;51.442;10.564;2023-08-06T10:45:29;2.10;;;1.20;;
80131;SDS011;69442;51.442;10.564;2023-08-06T10:47:55;2.22;;;1.30;;
80131;SDS011;69442;51.442;10.564;2023-08-06T10:50:22;1.75;;;1.10;;
80131;SDS011;69442;51.442;10.564;2023-08-06T10:52:48;2.13;;;1.17;;
80131;SDS011;69442;51.442;10.564;2023-08-06T10:55:14;1.92;;;1.13;;
80131;SDS011;69442;51.442;10.564;2023-08-06T10:57:46;2.53;;;1.27;;
80131;SDS011;69442;51.442;10.564;2023-08-06T11:00:12;1.42;;;1.10;;
80131;SDS011;69442;51.442;10.564;2023-08-06T11:02:38;1.65;;;1.20;;
80131;SDS011;69442;51.442;10.564;2023-08-06T11:05:07;2.67;;;1.30;;
80131;SDS011;69442;51.442;10.564;2023-08-06T11:07:36;3.17;;;1.30;;
80131;SDS011;69442;51.442;10.564;2023-08-06T11:12:29;2.15;;;1.52;;
80131;SDS011;69442;51.442;10.564;2023-08-06T11:14:56;2.95;;;1.20;;
80131;SDS011;69442;51.442;10.564;2023-08-06T11:17:21;2.63;;;1.25;;
80131;SDS011;69442;51.442;10.564;2023-08-06T11:19:47;1.33;;;1.10;;
80131;SDS011;69442;51.442;10.564;2023-08-06T11:22:14;2.08;;;1.10;;
80131;SDS011;69442;51.442;10.564;2023-08-06T11:24:41;1.50;;;1.10;;
80131;SDS011;69442;51.442;10.564;2023-08-06T11:27:13;2.08;;;1.20;;
80131;SDS011;69442;51.442;10.564;2023-08-06T11:29:40;1.95;;;1.27;;
80131;SDS011;69442;51.442;10.564;2023-08-06T11:32:06;2.35;;;1.10;;
80131;SDS011;69442;51.442;10.564;2023-08-06T11:34:32;1.30;;;1.10;;
80131;SDS011;69442;51.442;10.564;2023-08-06T11:36:58;1.48;;;1.13;;
80131;SDS011;69442;51.442;10.564;2023-08-06T11:39:23;2.20;;;1.10;;
80131;SDS011;69442;51.442;10.564;2023-08-06T11:41:49;1.90;;;1.17;;
80131;SDS011;69442;51.442;10.564;2023-08-06T11:44:14;2.33;;;1.13;;
80131;SDS011;69442;51.442;10.564;2023-08-06T11:46:49;1.40;;;1.10;;
80131;SDS011;69442;51.442;10.564;2023-08-06T11:49:21;2.13;;;1.38;;
80131;SDS011;69442;51.442;10.564;2023-08-06T11:52:13;2.03;;;1.25;;
80131;SDS011;69442;51.442;10.564;2023-08-06T11:54:40;2.17;;;1.15;;
80131;SDS011;69442;51.442;10.564;2023-08-06T11:57:06;2.40;;;1.23;;
80131;SDS011;69442;51.442;10.564;2023-08-06T11:59:33;2.40;;;1.10;;
80131;SDS011;69442;51.442;10.564;2023-08-06T12:02:02;2.80;;;1.30;;
80131;SDS011;69442;51.442;10.564;2023-08-06T12:04:30;2.65;;;1.38;;
80131;SDS011;69442;51.442;10.564;2023-08-06T12:07:01;1.98;;;1.05;;
80131;SDS011;69442;51.442;10.564;2023-08-06T12:09:29;1.33;;;1.10;;
80131;SDS011;69442;51.442;10.564;2023-08-06T12:11:55;2.00;;;1.00;;
80131;SDS011;69442;51.442;10.564;2023-08-06T12:14:20;2.25;;;1.15;;
80131;SDS011;69442;51.442;10.564;2023-08-06T12:16:46;2.38;;;1.20;;
80131;SDS011;69442;51.442;10.564;2023-08-06T12:19:11;2.35;;;1.10;;
80131;SDS011;69442;51.442;10.564;2023-08-06T12:21:36;1.92;;;0.90;;
80131;SDS011;69442;51.442;10.564;2023-08-06T12:24:02;1.83;;;1.02;;
80131;SDS011;69442;51.442;10.564;2023-08-06T12:26:27;3.40;;;1.30;;
80131;SDS011;69442;51.442;10.564;2023-08-06T12:28:53;1.75;;;1.20;;
80131;SDS011;69442;51.442;10.564;2023-08-06T12:31:20;2.40;;;1.17;;
80131;SDS011;69442;51.442;10.564;2023-08-06T12:33:45;1.80;;;1.10;;
80131;SDS011;69442;51.442;10.564;2023-08-06T12:36:10;2.15;;;1.20;;
80131;SDS011;69442;51.442;10.564;2023-08-06T12:38:36;1.42;;;1.00;;
80131;SDS011;69442;51.442;10.564;2023-08-06T12:41:01;2.15;;;1.15;;
80131;SDS011;69442;51.442;10.564;2023-08-06T12:43:27;1.40;;;1.02;;
80131;SDS011;69442;51.442;10.564;2023-08-06T12:45:52;1.52;;;0.93;;
80131;SDS011;69442;51.442;10.564;2023-08-06T12:48:19;1.50;;;1.02;;
80131;SDS011;69442;51.442;10.564;2023-08-06T12:50:44;2.47;;;1.23;;
80131;SDS011;69442;51.442;10.564;2023-08-06T12:53:10;2.17;;;1.20;;
80131;SDS011;69442;51.442;10.564;2023-08-06T12:55:35;1.58;;;0.90;;
80131;SDS011;69442;51.442;10.564;2023-08-06T12:58:01;1.80;;;0.90;;
80131;SDS011;69442;51.442;10.564;2023-08-06T13:00:26;2.85;;;1.30;;
80131;SDS011;69442;51.442;10.564;2023-08-06T13:02:52;2.10;;;0.82;;
80131;SDS011;69442;51.442;10.564;2023-08-06T13:05:17;2.50;;;1.00;;
80131;SDS011;69442;51.442;10.564;2023-08-06T13:07:42;3.00;;;1.20;;
80131;SDS011;69442;51.442;10.564;2023-08-06T13:10:08;1.77;;;1.15;;
80131;SDS011;69442;51.442;10.564;2023-08-06T13:12:33;1.88;;;0.98;;
80131;SDS011;69442;51.442;10.564;2023-08-06T13:14:59;1.63;;;1.02;;
80131;SDS011;69442;51.442;10.564;2023-08-06T13:17:24;2.30;;;1.10;;
80131;SDS011;69442;51.442;10.564;2023-08-06T13:19:49;2.22;;;1.10;;
80131;SDS011;69442;51.442;10.564;2023-08-06T13:22:15;1.38;;;1.02;;
80131;SDS011;69442;51.442;10.564;2023-08-06T13:24:40;1.70;;;1.02;;
80131;SDS011;69442;51.442;10.564;2023-08-06T13:27:06;2.17;;;1.00;;
80131;SDS011;69442;51.442;10.564;2023-08-06T13:29:32;2.10;;;1.30;;
80131;SDS011;69442;51.442;10.564;2023-08-06T13:31:57;1.50;;;1.10;;
80131;SDS011;69442;51.442;10.564;2023-08-06T13:34:22;1.17;;;0.90;;
80131;SDS011;69442;51.442;10.564;2023-08-06T13:36:48;1.85;;;0.95;;
80131;SDS011;69442;51.442;10.564;2023-08-06T13:39:14;3.60;;;0.90;;
80131;SDS011;69442;51.442;10.564;2023-08-06T13:41:42;1.45;;;1.10;;
80131;SDS011;69442;51.442;10.564;2023-08-06T13:44:07;1.73;;;0.95;;
80131;SDS011;69442;51.442;10.564;2023-08-06T13:46:33;1.73;;;0.90;;
80131;SDS011;69442;51.442;10.564;2023-08-06T13:48:58;2.05;;;0.90;;
80131;SDS011;69442;51.442;10.564;2023-08-06T13:51:23;1.50;;;1.00;;
80131;SDS011;69442;51.442;10.564;2023-08-06T13:53:49;2.75;;;1.15;;
80131;SDS011;69442;51.442;10.564;2023-08-06T13:56:14;2.03;;;1.00;;
80131;SDS011;69442;51.442;10.564;2023-08-06T13:58:42;2.13;;;1.30;;
80131;SDS011;69442;51.442;10.564;2023-08-06T14:01:09;3.92;;;0.93;;
80131;SDS011;69442;51.442;10.564;2023-08-06T14:03:36;1.20;;;0.88;;
80131;SDS011;69442;51.442;10.564;2023-08-06T14:06:01;1.23;;;0.90;;
80131;SDS011;69442;51.442;10.564;2023-08-06T14:08:27;1.98;;;1.20;;
80131;SDS011;69442;51.442;10.564;2023-08-06T14:10:52;1.90;;;1.00;;
80131;SDS011;69442;51.442;10.564;2023-08-06T14:13:18;2.75;;;0.90;;
80131;SDS011;69442;51.442;10.564;2023-08-06T14:15:44;1.08;;;0.70;;
80131;SDS011;69442;51.442;10.564;2023-08-06T14:18:12;1.02;;;0.70;;
80131;SDS011;69442;51.442;10.564;2023-08-06T14:20:38;1.73;;;0.85;;
80131;SDS011;69442;51.442;10.564;2023-08-06T14:23:03;2.75;;;1.02;;
80131;SDS011;69442;51.442;10.564;2023-08-06T14:25:28;1.45;;;0.77;;
80131;SDS011;69442;51.442;10.564;2023-08-06T14:27:54;1.77;;;1.00;;
80131;SDS011;69442;51.442;10.564;2023-08-06T14:30:19;2.55;;;0.85;;
80131;SDS011;69442;51.442;10.564;2023-08-06T14:32:45;1.60;;;1.05;;
80131;SDS011;69442;51.442;10.564;2023-08-06T14:35:10;2.28;;;1.00;;
80131;SDS011;69442;51.442;10.564;2023-08-06T14:37:36;4.20;;;1.20;;
80131;SDS011;69442;51.442;10.564;2023-08-06T14:40:01;1.60;;;0.80;;
80131;SDS011;69442;51.442;10.564;2023-08-06T14:42:27;1.92;;;1.00;;
80131;SDS011;69442;51.442;10.564;2023-08-06T14:44:52;2.53;;;1.30;;